createdAt,value
2018-04-18T00:02:22.381Z,100477.38
2018-04-18T00:04:49.978Z,100477.13
2018-04-18T00:07:17.640Z,100480.95
2018-04-18T00:09:45.242Z,100480.79
2018-04-18T00:12:12.896Z,100485.02
2018-04-18T00:14:40.528Z,100483.78
2018-04-18T00:17:08.128Z,100483.93
2018-04-18T00:19:35.744Z,100490.40
2018-04-18T00:22:03.405Z,100490.55
2018-04-18T00:24:31.012Z,100487.34
2018-04-18T00:26:58.627Z,100493.97
2018-04-18T00:29:26.275Z,100495.88
2018-04-18T00:31:53.898Z,100496.70
2018-04-18T00:34:21.497Z,100498.91
2018-04-18T00:36:49.136Z,100508.07
2018-04-18T00:39:16.748Z,100513.02
2018-04-18T00:41:44.514Z,100523.70
2018-04-18T00:44:12.187Z,100518.25
2018-04-18T00:46:39.779Z,100521.58
2018-04-18T00:49:07.407Z,100520.64
2018-04-18T00:51:35.938Z,100525.53
2018-04-18T00:54:03.534Z,100529.13
2018-04-18T00:56:31.124Z,100528.78
2018-04-18T00:58:58.911Z,100521.86
2018-04-18T01:01:27.324Z,100529.75
2018-04-18T01:03:54.926Z,100533.26
2018-04-18T01:06:22.589Z,100531.97
2018-04-18T01:08:50.205Z,100529.47
2018-04-18T01:11:17.803Z,100527.84
2018-04-18T01:13:45.458Z,100535.20
2018-04-18T01:16:13.057Z,100528.91
2018-04-18T01:18:40.664Z,100524.87
2018-04-18T01:21:08.308Z,100527.95
2018-04-18T01:23:35.906Z,100531.80
2018-04-18T01:26:03.496Z,100532.95
2018-04-18T01:28:31.213Z,100530.86
2018-04-18T01:30:58.823Z,100533.36
2018-04-18T01:33:26.452Z,100530.95
2018-04-18T01:35:54.093Z,100537.07
2018-04-18T01:38:21.709Z,100534.05
2018-04-18T01:40:49.309Z,100535.17
2018-04-18T01:43:16.942Z,100529.30
2018-04-18T01:45:44.536Z,100543.31
2018-04-18T01:48:12.141Z,100540.53
2018-04-18T01:50:39.775Z,100543.63
2018-04-18T01:53:07.369Z,100545.30
2018-04-18T01:55:34.972Z,100544.08
2018-04-18T01:58:02.596Z,100550.61
2018-04-18T02:00:30.227Z,100547.62
2018-04-18T02:02:57.832Z,100545.77
2018-04-18T02:05:25.468Z,100544.21
2018-04-18T02:07:53.060Z,100545.05
2018-04-18T02:10:20.638Z,100544.22
2018-04-18T02:12:48.276Z,100547.11
2018-04-18T02:15:15.867Z,100544.42
2018-04-18T02:17:43.453Z,100543.28
2018-04-18T02:20:11.094Z,100546.28
2018-04-18T02:22:38.698Z,100549.35
2018-04-18T02:25:06.293Z,100544.61
2018-04-18T02:27:33.933Z,100548.41
2018-04-18T02:30:01.582Z,100547.20
2018-04-18T02:32:29.210Z,100549.89
2018-04-18T02:34:56.874Z,100550.50
2018-04-18T02:37:24.468Z,100559.55
2018-04-18T02:39:52.061Z,100548.80
2018-04-18T02:42:19.692Z,100556.70
2018-04-18T02:44:47.296Z,100557.58
2018-04-18T02:47:14.903Z,100565.50
2018-04-18T02:49:42.569Z,100566.05
2018-04-18T02:52:10.164Z,100567.34
2018-04-18T02:54:37.815Z,100568.36
2018-04-18T02:57:05.474Z,100572.16
2018-04-18T02:59:33.123Z,100571.70
2018-04-18T03:02:00.715Z,100575.94
2018-04-18T03:04:28.358Z,100572.28
2018-04-18T03:06:55.973Z,100576.39
2018-04-18T03:09:23.591Z,100578.94
2018-04-18T03:11:51.224Z,100574.71
2018-04-18T03:14:18.821Z,100576.34
2018-04-18T03:16:46.414Z,100580.18
2018-04-18T03:19:14.093Z,100586.03
2018-04-18T03:21:41.697Z,100584.98
2018-04-18T03:24:09.296Z,100585.83
2018-04-18T03:26:36.973Z,100589.11
2018-04-18T03:29:04.573Z,100594.00
2018-04-18T03:31:32.172Z,100590.67
2018-04-18T03:33:59.797Z,100595.78
2018-04-18T03:36:27.389Z,100602.28
2018-04-18T03:38:54.988Z,100594.13
2018-04-18T03:41:22.600Z,100605.38
2018-04-18T03:43:50.193Z,100604.14
2018-04-18T03:46:17.777Z,100609.91
2018-04-18T03:48:45.389Z,100612.56
2018-04-18T03:51:12.983Z,100616.08
2018-04-18T03:53:40.585Z,100616.59
2018-04-18T03:56:08.229Z,100617.39
2018-04-18T03:58:35.823Z,100623.61
2018-04-18T04:01:03.420Z,100625.47
2018-04-18T04:03:31.052Z,100623.09
2018-04-18T04:05:58.644Z,100630.12
2018-04-18T04:08:26.275Z,100625.49
2018-04-18T04:10:53.899Z,100634.22
2018-04-18T04:13:21.549Z,100626.33
2018-04-18T04:15:49.148Z,100627.70
2018-04-18T04:18:28.626Z,100632.81
2018-04-18T04:21:07.981Z,100634.66
2018-04-18T04:23:47.396Z,100637.50
2018-04-18T04:26:15.001Z,100641.31
2018-04-18T04:28:42.600Z,100639.44
2018-04-18T04:31:10.245Z,100641.08
2018-04-18T04:33:37.886Z,100643.23
2018-04-18T04:36:05.558Z,100646.31
2018-04-18T04:38:33.267Z,100643.54
2018-04-18T04:41:00.862Z,100643.77
2018-04-18T04:43:28.461Z,100649.56
2018-04-18T04:45:56.459Z,100649.70
2018-04-18T04:48:24.059Z,100651.96
2018-04-18T04:50:51.710Z,100655.05
2018-04-18T04:53:19.578Z,100656.29
2018-04-18T04:55:47.192Z,100656.90
2018-04-18T04:58:14.824Z,100654.81
2018-04-18T05:00:42.565Z,100653.59
2018-04-18T05:03:10.160Z,100657.03
2018-04-18T05:05:37.808Z,100659.71
2018-04-18T05:08:05.435Z,100663.06
2018-04-18T05:10:33.141Z,100661.95
2018-04-18T05:13:00.744Z,100667.46
2018-04-18T05:15:28.369Z,100671.45
2018-04-18T05:17:55.968Z,100674.01
2018-04-18T05:20:23.547Z,100677.40
2018-04-18T05:22:51.180Z,100682.17
2018-04-18T05:25:18.781Z,100688.56
2018-04-18T05:27:46.386Z,100683.09
2018-04-18T05:30:14.046Z,100683.05
2018-04-18T05:32:41.686Z,100683.69
2018-04-18T05:35:09.293Z,100695.39
2018-04-18T05:37:36.925Z,100697.84
2018-04-18T05:40:04.535Z,100699.35
2018-04-18T05:42:32.136Z,100698.01
2018-04-18T05:44:59.768Z,100696.30
2018-04-18T05:47:27.370Z,100696.36
2018-04-18T05:49:54.977Z,100701.97
2018-04-18T05:52:22.608Z,100711.39
2018-04-18T05:54:50.221Z,100711.81
2018-04-18T05:57:17.851Z,100702.59
2018-04-18T05:59:45.496Z,100714.64
2018-04-18T06:02:13.121Z,100715.81
2018-04-18T06:04:40.758Z,100717.27
2018-04-18T06:07:08.396Z,100717.41
2018-04-18T06:09:35.996Z,100718.08
2018-04-18T06:12:03.585Z,100716.20
2018-04-18T06:14:31.319Z,100726.31
2018-04-18T06:16:58.901Z,100721.89
2018-04-18T06:19:26.592Z,100723.84
2018-04-18T06:21:54.465Z,100731.13
2018-04-18T06:24:22.131Z,100731.48
2018-04-18T06:26:49.788Z,100739.97
2018-04-18T06:29:17.444Z,100741.24
2018-04-18T06:31:45.031Z,100742.17
2018-04-18T06:34:12.620Z,100735.39
2018-04-18T06:36:40.433Z,100738.55
2018-04-18T06:39:08.033Z,100737.44
2018-04-18T06:41:35.617Z,100749.98
2018-04-18T06:44:03.247Z,100750.52
2018-04-18T06:46:30.841Z,100752.50
2018-04-18T06:48:58.442Z,100751.69
2018-04-18T06:51:26.566Z,100747.89
2018-04-18T06:53:54.183Z,100745.17
2018-04-18T06:56:21.801Z,100750.22
2018-04-18T06:58:49.441Z,100751.69
2018-04-18T07:01:17.055Z,100754.58
2018-04-18T07:03:44.656Z,100753.92
2018-04-18T07:06:12.290Z,100758.27
2018-04-18T07:08:39.889Z,100758.27
2018-04-18T07:11:07.522Z,100757.94
2018-04-18T07:13:35.200Z,100764.67
2018-04-18T07:16:02.837Z,100772.20
2018-04-18T07:18:30.436Z,100770.31
2018-04-18T07:20:58.126Z,100770.89
2018-04-18T07:23:25.755Z,100773.28
2018-04-18T07:25:53.357Z,100775.50
2018-04-18T07:28:20.998Z,100778.12
2018-04-18T07:30:48.603Z,100782.67
2018-04-18T07:33:16.204Z,100779.30
2018-04-18T07:35:43.836Z,100780.16
2018-04-18T07:38:11.434Z,100779.25
2018-04-18T07:40:39.020Z,100782.20
2018-04-18T07:43:06.650Z,100777.42
2018-04-18T07:45:34.239Z,100779.63
2018-04-18T07:48:01.834Z,100782.98
2018-04-18T07:50:29.470Z,100784.60
2018-04-18T07:52:57.065Z,100779.95
2018-04-18T07:55:24.667Z,100772.82
2018-04-18T07:57:52.336Z,100779.23
2018-04-18T08:00:19.943Z,100784.58
2018-04-18T08:02:47.539Z,100774.05
2018-04-18T08:05:15.174Z,100786.66
2018-04-18T08:07:42.775Z,100788.52
2018-04-18T08:10:10.445Z,100785.95
2018-04-18T08:12:38.138Z,100797.84
2018-04-18T08:15:05.733Z,100790.58
2018-04-18T08:17:33.328Z,100786.19
2018-04-18T08:20:00.969Z,100784.51
2018-04-18T08:22:28.608Z,100782.59
2018-04-18T08:24:56.244Z,100788.58
2018-04-18T08:27:23.889Z,100786.00
2018-04-18T08:29:51.511Z,100786.17
2018-04-18T08:32:19.105Z,100780.13
2018-04-18T08:34:46.742Z,100785.37
2018-04-18T08:37:14.337Z,100782.50
2018-04-18T08:39:41.941Z,100785.52
2018-04-18T08:42:09.575Z,100779.51
2018-04-18T08:44:37.164Z,100785.41
2018-04-18T08:47:04.790Z,100784.23
2018-04-18T08:49:32.478Z,100786.28
2018-04-18T08:52:00.077Z,100782.89
2018-04-18T08:54:27.671Z,100781.25
2018-04-18T08:56:55.342Z,100780.03
2018-04-18T08:59:22.989Z,100783.33
2018-04-18T09:01:50.583Z,100785.39
2018-04-18T09:04:18.239Z,100788.36
2018-04-18T09:06:45.848Z,100791.12
2018-04-18T09:09:13.453Z,100787.39
2018-04-18T09:11:41.089Z,100786.05
2018-04-18T09:14:08.682Z,100791.53
2018-04-18T09:16:36.289Z,100793.14
2018-04-18T09:19:04.695Z,100801.45
2018-04-18T09:21:32.306Z,100796.32
2018-04-18T09:23:59.901Z,100795.30
2018-04-18T09:26:28.398Z,100792.96
2018-04-18T09:28:55.999Z,100796.17
2018-04-18T09:31:23.594Z,100797.86
2018-04-18T09:33:51.260Z,100793.89
2018-04-18T09:36:18.867Z,100792.97
2018-04-18T09:38:46.466Z,100784.13
2018-04-18T09:41:14.103Z,100789.17
2018-04-18T09:43:41.701Z,100785.23
2018-04-18T09:46:09.303Z,100788.53
2018-04-18T09:48:36.938Z,100793.48
2018-04-18T09:51:04.536Z,100786.81
2018-04-18T09:53:32.127Z,100791.86
2018-04-18T09:55:59.753Z,100782.73
2018-04-18T09:58:27.396Z,100776.50
2018-04-18T10:00:57.424Z,100780.38
2018-04-18T10:03:25.051Z,100779.47
2018-04-18T10:05:52.658Z,100784.52
2018-04-18T10:08:20.302Z,100782.50
2018-04-18T10:10:47.931Z,100784.73
2018-04-18T10:13:15.593Z,100778.25
2018-04-18T10:15:43.210Z,100776.66
2018-04-18T10:18:10.847Z,100776.64
2018-04-18T10:20:38.436Z,100777.52
2018-04-18T10:23:06.050Z,100780.23
2018-04-18T10:25:33.784Z,100773.59
2018-04-18T10:28:01.381Z,100773.81
2018-04-18T10:30:28.976Z,100768.44
2018-04-18T10:32:56.602Z,100768.91
2018-04-18T10:35:24.199Z,100763.48
2018-04-18T10:37:51.798Z,100764.36
2018-04-18T10:40:19.420Z,100758.00
2018-04-18T10:42:47.069Z,100761.75
2018-04-18T10:45:14.701Z,100750.88
2018-04-18T10:47:42.332Z,100756.48
2018-04-18T10:50:09.934Z,100764.79
2018-04-18T10:52:37.533Z,100762.73
2018-04-18T10:55:05.161Z,100759.63
2018-04-18T10:57:32.748Z,100760.46
2018-04-18T11:00:00.341Z,100761.06
2018-04-18T11:02:27.998Z,100756.88
2018-04-18T11:04:55.588Z,100757.36
2018-04-18T11:07:23.221Z,100760.07
2018-04-18T11:09:50.900Z,100751.39
2018-04-18T11:12:18.497Z,100754.23
2018-04-18T11:14:46.141Z,100758.69
2018-04-18T11:17:13.761Z,100747.77
2018-04-18T11:19:44.261Z,100746.39
2018-04-18T11:22:16.423Z,100748.72
2018-04-18T11:24:44.321Z,100746.11
2018-04-18T11:27:11.952Z,100740.58
2018-04-18T11:29:39.593Z,100738.02
2018-04-18T11:32:07.177Z,100737.70
2018-04-18T11:34:34.756Z,100738.55
2018-04-18T11:37:02.403Z,100743.00
2018-04-18T11:39:30.000Z,100732.78
2018-04-18T11:41:57.588Z,100734.36
2018-04-18T11:44:25.200Z,100729.30
2018-04-18T11:46:52.797Z,100735.28
2018-04-18T11:49:20.728Z,100735.61
2018-04-18T11:51:48.373Z,100721.98
2018-04-18T11:54:16.036Z,100724.97
2018-04-18T11:56:43.639Z,100727.26
2018-04-18T11:59:11.267Z,100718.22
2018-04-18T12:01:38.871Z,100717.31
2018-04-18T12:04:06.504Z,100708.81
2018-04-18T12:06:34.147Z,100709.93
2018-04-18T12:09:01.747Z,100711.63
2018-04-18T12:11:29.417Z,100707.09
2018-04-18T12:13:57.085Z,100703.02
2018-04-18T12:16:24.708Z,100703.80
2018-04-18T12:18:52.306Z,100691.98
2018-04-18T12:21:19.961Z,100690.12
2018-04-18T12:23:47.591Z,100685.22
2018-04-18T12:26:15.193Z,100690.25
2018-04-18T12:28:42.889Z,100680.73
2018-04-18T12:31:10.483Z,100681.31
2018-04-18T12:33:38.071Z,100678.52
2018-04-18T12:36:05.787Z,100673.09
2018-04-18T12:38:33.372Z,100673.38
2018-04-18T12:41:00.998Z,100675.25
2018-04-18T12:43:28.777Z,100681.72
2018-04-18T12:45:56.488Z,100669.59
2018-04-18T12:48:24.077Z,100668.27
2018-04-18T12:50:51.701Z,100667.52
2018-04-18T12:53:19.334Z,100669.24
2018-04-18T12:55:46.903Z,100669.41
2018-04-18T12:58:20.562Z,100663.84
2018-04-18T13:00:48.206Z,100660.78
2018-04-18T13:03:15.808Z,100656.14
2018-04-18T13:05:43.451Z,100655.43
2018-04-18T13:08:11.115Z,100651.25
2018-04-18T13:10:38.729Z,100647.61
2018-04-18T13:13:06.399Z,100648.91
2018-04-18T13:15:34.068Z,100647.92
2018-04-18T13:18:01.698Z,100641.38
2018-04-18T13:20:29.334Z,100643.81
2018-04-18T13:22:56.944Z,100637.86
2018-04-18T13:25:24.604Z,100634.85
2018-04-18T13:27:52.272Z,100643.25
2018-04-18T13:30:19.893Z,100637.88
2018-04-18T13:32:47.485Z,100638.01
2018-04-18T13:35:15.114Z,100634.91
2018-04-18T13:37:42.749Z,100630.33
2018-04-18T13:40:10.398Z,100638.21
2018-04-18T13:42:38.074Z,100635.25
2018-04-18T13:45:05.716Z,100637.16
2018-04-18T13:47:33.348Z,100631.73
2018-04-18T13:50:01.000Z,100632.55
2018-04-18T13:52:28.592Z,100634.18
2018-04-18T13:54:56.232Z,100631.17
2018-04-18T13:57:23.866Z,100636.75
2018-04-18T13:59:51.455Z,100636.90
2018-04-18T14:02:19.055Z,100637.62
2018-04-18T14:04:46.680Z,100633.75
2018-04-18T14:07:14.284Z,100636.43
2018-04-18T14:09:41.897Z,100641.15
2018-04-18T14:12:09.537Z,100640.55
2018-04-18T14:14:37.251Z,100644.24
2018-04-18T14:17:04.836Z,100639.39
2018-04-18T14:19:32.464Z,100643.02
2018-04-18T14:22:00.061Z,100644.63
2018-04-18T14:24:27.660Z,100639.53
2018-04-18T14:26:55.279Z,100643.13
2018-04-18T14:29:22.867Z,100636.91
2018-04-18T14:31:50.467Z,100634.69
2018-04-18T14:34:18.094Z,100641.23
2018-04-18T14:36:45.688Z,100647.67
2018-04-18T14:39:13.285Z,100641.11
2018-04-18T14:41:40.906Z,100635.07
2018-04-18T14:44:08.527Z,100637.30
2018-04-18T14:46:36.119Z,100637.36
2018-04-18T14:49:03.750Z,100634.38
2018-04-18T14:51:31.342Z,100637.39
2018-04-18T14:53:58.931Z,100638.26
2018-04-18T14:56:26.545Z,100643.58
2018-04-18T14:58:54.195Z,100642.49
2018-04-18T15:01:21.791Z,100648.23
2018-04-18T15:03:49.457Z,100653.27
2018-04-18T15:06:17.049Z,100653.33
2018-04-18T15:08:44.700Z,100654.98
2018-04-18T15:11:12.337Z,100648.80
2018-04-18T15:13:39.936Z,100654.27
2018-04-18T15:16:12.417Z,100661.55
2018-04-18T15:18:40.021Z,100663.04
2018-04-18T15:21:07.605Z,100661.39
2018-04-18T15:23:35.244Z,100659.33
2018-04-18T15:26:02.844Z,100660.01
2018-04-18T15:28:30.541Z,100653.07
2018-04-18T15:30:58.153Z,100654.27
2018-04-18T15:33:25.745Z,100655.50
2018-04-18T15:35:53.385Z,100663.02
2018-04-18T15:38:21.027Z,100657.66
2018-04-18T15:40:48.629Z,100660.48
2018-04-18T15:43:16.216Z,100661.03
2018-04-18T15:45:43.836Z,100665.42
2018-04-18T15:48:11.431Z,100666.45
2018-04-18T15:50:39.025Z,100661.93
2018-04-18T15:53:06.659Z,100672.22
2018-04-18T15:55:34.334Z,100666.98
2018-04-18T15:58:01.957Z,100675.97
2018-04-18T16:00:29.631Z,100671.45
2018-04-18T16:02:57.226Z,100670.70
2018-04-18T16:05:24.850Z,100667.23
2018-04-18T16:07:52.469Z,100671.33
2018-04-18T16:10:20.058Z,100668.70
2018-04-18T16:12:47.655Z,100672.21
2018-04-18T16:15:15.282Z,100665.77
2018-04-18T16:17:42.904Z,100670.09
2018-04-18T16:20:10.543Z,100673.29
2018-04-18T16:22:38.182Z,100667.42
2018-04-18T16:25:05.821Z,100661.89
2018-04-18T16:27:33.434Z,100669.20
2018-04-18T16:30:01.091Z,100675.97
2018-04-18T16:32:28.736Z,100669.92
2018-04-18T16:34:56.333Z,100670.59
2018-04-18T16:37:23.960Z,100673.52
2018-04-18T16:39:51.601Z,100676.14
2018-04-18T16:42:19.220Z,100671.13
2018-04-18T16:44:46.877Z,100679.50
2018-04-18T16:47:14.487Z,100687.72
2018-04-18T16:49:42.089Z,100685.40
2018-04-18T16:52:09.746Z,100696.41
2018-04-18T16:54:37.340Z,100693.88
2018-04-18T16:57:04.940Z,100705.13
2018-04-18T16:59:32.584Z,100700.59
2018-04-18T17:02:00.245Z,100703.42
2018-04-18T17:04:27.842Z,100702.16
2018-04-18T17:06:55.503Z,100695.77
2018-04-18T17:09:23.115Z,100712.17
2018-04-18T17:11:50.735Z,100713.74
2018-04-18T17:14:18.436Z,100721.78
2018-04-18T17:16:46.145Z,100721.66
2018-04-18T17:19:13.808Z,100720.75
2018-04-18T17:21:41.653Z,100733.94
2018-04-18T17:24:09.241Z,100733.59
2018-04-18T17:26:36.835Z,100739.27
2018-04-18T17:29:04.494Z,100742.78
2018-04-18T17:31:32.126Z,100743.48
2018-04-18T17:33:59.788Z,100745.69
2018-04-18T17:36:27.637Z,100749.41
2018-04-18T17:38:55.305Z,100751.92
2018-04-18T17:41:22.975Z,100753.09
2018-04-18T17:43:50.805Z,100760.94
2018-04-18T17:46:18.400Z,100764.52
2018-04-18T17:48:46.218Z,100765.71
2018-04-18T17:51:14.027Z,100761.06
2018-04-18T17:53:41.694Z,100766.08
2018-04-18T17:56:09.395Z,100769.59
2018-04-18T17:58:37.024Z,100762.31
2018-04-18T18:01:04.890Z,100773.84
2018-04-18T18:03:32.594Z,100782.57
2018-04-18T18:06:00.420Z,100787.51
2018-04-18T18:08:28.081Z,100788.58
2018-04-18T18:10:55.731Z,100792.42
2018-04-18T18:13:23.616Z,100791.30
2018-04-18T18:15:51.605Z,100780.55
2018-04-18T18:18:19.546Z,100783.83
2018-04-18T18:20:47.172Z,100784.86
2018-04-18T18:23:14.755Z,100790.39
2018-04-18T18:25:42.329Z,100792.75
2018-04-18T18:28:09.946Z,100790.15
2018-04-18T18:30:37.531Z,100795.80
2018-04-18T18:33:05.116Z,100799.64
2018-04-18T18:35:32.752Z,100799.05
2018-04-18T18:38:00.394Z,100804.05
2018-04-18T18:40:27.968Z,100802.86
2018-04-18T18:42:55.601Z,100804.29
2018-04-18T18:45:23.269Z,100808.39
2018-04-18T18:47:50.901Z,100809.33
2018-04-18T18:50:18.583Z,100809.34
2018-04-18T18:52:46.437Z,100808.76
2018-04-18T18:55:14.059Z,100811.06
2018-04-18T18:57:41.844Z,100818.31
2018-04-18T19:00:09.594Z,100814.67
2018-04-18T19:02:37.262Z,100810.98
2018-04-18T19:05:04.904Z,100813.11
2018-04-18T19:07:32.578Z,100814.88
2018-04-18T19:10:00.165Z,100816.87
2018-04-18T19:12:28.119Z,100821.08
2018-04-18T19:14:55.779Z,100819.85
2018-04-18T19:17:23.455Z,100826.60
2018-04-18T19:19:51.081Z,100824.37
2018-04-18T19:22:24.412Z,100827.06
2018-04-18T19:24:52.066Z,100824.08
2018-04-18T19:27:19.653Z,100822.31
2018-04-18T19:29:47.694Z,100821.65
2018-04-18T19:32:15.393Z,100817.42
2018-04-18T19:34:42.996Z,100824.22
2018-04-18T19:37:10.679Z,100825.50
2018-04-18T19:39:38.575Z,100821.86
2018-04-18T19:42:06.229Z,100823.56
2018-04-18T19:44:33.828Z,100820.59
2018-04-18T19:47:01.535Z,100829.59
2018-04-18T19:49:29.182Z,100833.13
2018-04-18T19:51:56.843Z,100827.88
2018-04-18T19:54:24.547Z,100832.00
2018-04-18T19:56:52.526Z,100845.49
2018-04-18T19:59:20.499Z,100845.53
2018-04-18T20:01:48.509Z,100843.77
2018-04-18T20:06:50.993Z,100842.72
2018-04-18T20:09:18.589Z,100835.52
2018-04-18T20:11:46.212Z,100840.95
2018-04-18T20:14:13.829Z,100840.73
2018-04-18T20:16:41.429Z,100833.80
2018-04-18T20:19:09.026Z,100839.30
2018-04-18T20:21:36.657Z,100834.84
2018-04-18T20:24:04.262Z,100837.05
2018-04-18T20:26:31.862Z,100836.72
2018-04-18T20:28:59.503Z,100838.66
2018-04-18T20:31:27.658Z,100837.28
2018-04-18T20:33:55.270Z,100838.14
2018-04-18T20:36:22.912Z,100836.80
2018-04-18T20:38:50.536Z,100833.19
2018-04-18T20:41:18.128Z,100838.03
2018-04-18T20:43:45.769Z,100835.89
2018-04-18T20:46:13.379Z,100834.63
2018-04-18T20:48:40.961Z,100834.17
2018-04-18T20:51:08.603Z,100838.96
2018-04-18T20:53:36.341Z,100835.34
2018-04-18T20:56:05.175Z,100838.86
2018-04-18T20:58:32.834Z,100839.94
2018-04-18T21:01:00.416Z,100842.64
2018-04-18T21:03:28.005Z,100844.59
2018-04-18T21:05:55.668Z,100849.27
2018-04-18T21:08:23.326Z,100849.69
2018-04-18T21:10:50.933Z,100848.67
2018-04-18T21:13:18.590Z,100851.34
2018-04-18T21:15:46.270Z,100853.92
2018-04-18T21:18:13.886Z,100858.83
2018-04-18T21:20:41.539Z,100853.66
2018-04-18T21:23:09.167Z,100853.89
2018-04-18T21:25:36.821Z,100855.31
2018-04-18T21:28:04.497Z,100852.01
2018-04-18T21:30:32.136Z,100851.41
2018-04-18T21:32:59.792Z,100852.88
2018-04-18T21:35:27.453Z,100859.63
2018-04-18T21:37:55.049Z,100852.16
2018-04-18T21:40:22.655Z,100853.92
2018-04-18T21:42:50.413Z,100860.97
2018-04-18T21:45:18.095Z,100860.33
2018-04-18T21:47:45.689Z,100861.03
2018-04-18T21:50:13.341Z,100857.73
2018-04-18T21:52:40.952Z,100861.30
2018-04-18T21:55:09.752Z,100857.77
2018-04-18T21:57:37.390Z,100853.48
2018-04-18T22:00:05.089Z,100849.06
2018-04-18T22:02:32.702Z,100853.67
2018-04-18T22:05:00.343Z,100850.08
2018-04-18T22:07:27.996Z,100842.48
2018-04-18T22:09:55.637Z,100845.72
2018-04-18T22:12:23.271Z,100848.30
2018-04-18T22:14:50.873Z,100850.35
2018-04-18T22:17:18.485Z,100850.37
2018-04-18T22:19:46.121Z,100854.97
2018-04-18T22:22:13.757Z,100860.03
2018-04-18T22:24:41.380Z,100858.83
2018-04-18T22:27:09.085Z,100861.87
2018-04-18T22:29:36.685Z,100857.30
2018-04-18T22:32:04.281Z,100851.78
2018-04-18T22:34:31.918Z,100855.35
2018-04-18T22:36:59.584Z,100855.77
2018-04-18T22:39:27.288Z,100856.02
2018-04-18T22:41:55.745Z,100851.33
2018-04-18T22:44:23.348Z,100848.67
2018-04-18T22:46:50.951Z,100854.86
2018-04-18T22:49:18.589Z,100854.15
2018-04-18T22:51:46.181Z,100854.90
2018-04-18T22:54:13.783Z,100856.55
2018-04-18T22:56:41.420Z,100859.66
2018-04-18T22:59:09.057Z,100862.17
2018-04-18T23:01:36.674Z,100860.70
2018-04-18T23:04:04.330Z,100861.01
2018-04-18T23:06:31.935Z,100855.05
2018-04-18T23:08:59.556Z,100853.81
2018-04-18T23:11:27.744Z,100862.36
2018-04-18T23:13:55.363Z,100858.05
2018-04-18T23:16:22.973Z,100859.63
2018-04-18T23:18:50.657Z,100853.14
2018-04-18T23:21:18.288Z,100849.84
2018-04-18T23:23:45.886Z,100851.03
2018-04-18T23:26:13.527Z,100846.09
2018-04-18T23:28:41.134Z,100853.97
2018-04-18T23:31:08.835Z,100845.45
2018-04-18T23:33:36.565Z,100852.20
2018-04-18T23:36:04.165Z,100856.44
2018-04-18T23:38:31.763Z,100854.45
2018-04-18T23:40:59.391Z,100851.11
2018-04-18T23:43:26.990Z,100840.50
2018-04-18T23:45:54.592Z,100840.39
2018-04-18T23:48:22.550Z,100841.41
2018-04-18T23:50:50.141Z,100839.56
2018-04-18T23:53:17.733Z,100839.05
2018-04-18T23:55:45.374Z,100839.98
2018-04-18T23:58:12.969Z,100838.92
